Mosby, MT (59058)

10:25 AM MST on February 13, 2016 (GMT -0700)
Melstone school | | Change Station
CLOSE
Current Station
Personal Weather Station
Location: Melstone, MT
Elevation: 2969 ft
Nearby Weather Stations
Active Advisory: Freezing Rain Advisory

Elev 2969 ft 46.60 °N, 107.87 °W | Updated 1 minute ago

Overcast
Overcast
46.9 °F
Feels Like 45 °F
N
4.3
Wind Variable Wind from NNW
Gusts 5.0 mph

Today
High -- | Low -- °F
--% Chance of Precip.
Yesterday
High -- | Low -- °F
Precip. -- in
Pressure 29.89 in
Visibility 10.0 miles
Clouds Overcast 9500 ft
Windchill 45 °F
Dew Point 39 °F
Humidity 73%
Rainfall 0.00 in
Snow Depth Not available.
7:19 AM 5:32 PM
Waxing Crescent, 32% visible
METAR KLWT 131654Z AUTO 29008KT 10SM OVC095 06/00 A2988 RMK AO2 SLP122 T00610000
Pressure 29.89 in
Visibility 10.0 miles
Clouds Overcast 9500 ft
Windchill 45 °F
Dew Point 39 °F
Humidity 73%
Rainfall 0.00 in
Snow Depth Not available.
7:19 AM 5:32 PM
Waxing Crescent, 32% visible
METAR KLWT 131654Z AUTO 29008KT 10SM OVC095 06/00 A2988 RMK AO2 SLP122 T00610000

10-Day Weather Forecast

Almanac

Astronomy

Feb. 13, 2016 Rise Set
Actual Time
Civil Twilight
Nautical Twilight
Astronomical Twilight
Moon
Length of Visible Light
Length of Day
Tomorrow will be .
, % of the Moon is Illuminated

Today's Extremes

State Highs State Lows

Community

WunderPhotos

Upload Photos

1,892,620 photos uploaded!

WunderBlog® & News

Nearby

Air Quality

  Air Quality AQ Index Pollutant
Not available.

Snow Depth

Station Depth Elevation

Earthquake Activity

City Distance Mag. Time & Date
Minimum magnitude displayed is 2.5.

Coastal Water Temperatures

Place Temperature

Stations

Nearby Weather Stations

Station Location Temp. Windchill Dew Point Humidity Wind Precip. Elev Updated Type
                   

Watches & Warnings

Freezing Rain Advisory
Issued: 9:58 AM MST Feb. 13, 2016 – National Weather Service

... Freezing Rain Advisory remains in effect until 1 PM MST this
afternoon...

* timing... to early afternoon.

* Ice accumulation... 1 to 5 hundredths of an inch.

* Impacts... travel on icy roads may be hazardous.

Precautionary/preparedness actions...

Motorists are strongly encouraged to reconsider travel plans or
take an alternate Route. If you must travel use extreme caution...
reduce your speed... and allow extra time to reach your
destination.